sensor_id;sensor_type;location;lat;lon;timestamp;pressure;altitude;pressure_sealevel;temperature;humidity
39739;BME280;25422;48.286;8.484;2022-12-18T00:02:16;94878.78;;;-15.50;100.00
39739;BME280;25422;48.286;8.484;2022-12-18T00:04:41;94872.09;;;-15.31;100.00
39739;BME280;25422;48.286;8.484;2022-12-18T00:07:07;94873.75;;;-15.10;100.00
39739;BME280;25422;48.286;8.484;2022-12-18T00:09:32;94865.41;;;-14.98;100.00
39739;BME280;25422;48.286;8.484;2022-12-18T00:11:58;94864.53;;;-14.83;100.00
39739;BME280;25422;48.286;8.484;2022-12-18T00:14:23;94862.00;;;-14.64;100.00
39739;BME280;25422;48.286;8.484;2022-12-18T00:16:49;94853.53;;;-14.42;100.00
39739;BME280;25422;48.286;8.484;2022-12-18T00:19:14;94850.16;;;-14.33;100.00
39739;BME280;25422;48.286;8.484;2022-12-18T00:21:41;94864.31;;;-14.15;100.00
39739;BME280;25422;48.286;8.484;2022-12-18T00:24:08;94865.91;;;-13.91;100.00
39739;BME280;25422;48.286;8.484;2022-12-18T00:26:34;94871.75;;;-13.87;100.00
39739;BME280;25422;48.286;8.484;2022-12-18T00:29:07;94873.44;;;-13.92;100.00
39739;BME280;25422;48.286;8.484;2022-12-18T00:31:34;94871.78;;;-13.93;100.00
39739;BME280;25422;48.286;8.484;2022-12-18T00:34:00;94886.88;;;-13.88;100.00
39739;BME280;25422;48.286;8.484;2022-12-18T00:36:30;94877.63;;;-13.89;100.00
39739;BME280;25422;48.286;8.484;2022-12-18T00:38:57;94887.69;;;-13.83;100.00
39739;BME280;25422;48.286;8.484;2022-12-18T00:41:23;94886.78;;;-13.73;100.00
39739;BME280;25422;48.286;8.484;2022-12-18T00:44:10;94888.38;;;-13.60;100.00
39739;BME280;25422;48.286;8.484;2022-12-18T00:46:36;94875.75;;;-13.49;100.00
39739;BME280;25422;48.286;8.484;2022-12-18T00:49:02;94879.00;;;-13.36;100.00
39739;BME280;25422;48.286;8.484;2022-12-18T00:51:27;94880.56;;;-13.23;100.00
39739;BME280;25422;48.286;8.484;2022-12-18T00:53:53;94873.75;;;-13.08;100.00
39739;BME280;25422;48.286;8.484;2022-12-18T00:56:19;94866.00;;;-12.86;100.00
39739;BME280;25422;48.286;8.484;2022-12-18T00:58:45;94870.91;;;-12.68;100.00
39739;BME280;25422;48.286;8.484;2022-12-18T01:01:10;94875.84;;;-12.57;100.00
39739;BME280;25422;48.286;8.484;2022-12-18T01:03:36;94871.56;;;-12.49;100.00
39739;BME280;25422;48.286;8.484;2022-12-18T01:06:09;94871.44;;;-12.38;100.00
39739;BME280;25422;48.286;8.484;2022-12-18T01:08:35;94881.25;;;-12.13;100.00
39739;BME280;25422;48.286;8.484;2022-12-18T01:11:07;94874.31;;;-11.94;100.00
39739;BME280;25422;48.286;8.484;2022-12-18T01:13:33;94865.38;;;-11.56;100.00
39739;BME280;25422;48.286;8.484;2022-12-18T01:15:58;94864.06;;;-11.23;100.00
39739;BME280;25422;48.286;8.484;2022-12-18T01:18:24;94864.31;;;-10.85;100.00
39739;BME280;25422;48.286;8.484;2022-12-18T01:20:49;94867.72;;;-10.38;100.00
39739;BME280;25422;48.286;8.484;2022-12-18T01:23:15;94868.53;;;-9.92;100.00
39739;BME280;25422;48.286;8.484;2022-12-18T01:25:40;94865.53;;;-9.69;100.00
39739;BME280;25422;48.286;8.484;2022-12-18T01:28:08;94868.31;;;-9.40;100.00
39739;BME280;25422;48.286;8.484;2022-12-18T01:30:34;94873.06;;;-9.25;100.00
39739;BME280;25422;48.286;8.484;2022-12-18T01:32:59;94870.25;;;-9.12;100.00
39739;BME280;25422;48.286;8.484;2022-12-18T01:35:25;94859.88;;;-9.02;100.00
39739;BME280;25422;48.286;8.484;2022-12-18T01:37:55;94867.28;;;-8.94;100.00
39739;BME280;25422;48.286;8.484;2022-12-18T01:40:21;94870.56;;;-8.89;100.00
39739;BME280;25422;48.286;8.484;2022-12-18T01:42:53;94876.38;;;-8.85;100.00
39739;BME280;25422;48.286;8.484;2022-12-18T01:45:23;94878.97;;;-8.87;100.00
39739;BME280;25422;48.286;8.484;2022-12-18T01:47:58;94867.84;;;-8.81;100.00
39739;BME280;25422;48.286;8.484;2022-12-18T01:50:30;94874.41;;;-8.74;100.00
39739;BME280;25422;48.286;8.484;2022-12-18T01:55:26;94877.81;;;-8.73;100.00
39739;BME280;25422;48.286;8.484;2022-12-18T01:57:55;94881.94;;;-8.69;100.00
39739;BME280;25422;48.286;8.484;2022-12-18T02:00:23;94884.44;;;-8.68;100.00
39739;BME280;25422;48.286;8.484;2022-12-18T02:02:50;94890.16;;;-8.59;100.00
39739;BME280;25422;48.286;8.484;2022-12-18T02:11:33;94884.13;;;-8.55;100.00
39739;BME280;25422;48.286;8.484;2022-12-18T02:19:01;94868.59;;;-8.44;100.00
39739;BME280;25422;48.286;8.484;2022-12-18T02:22:16;94874.41;;;-8.39;100.00
39739;BME280;25422;48.286;8.484;2022-12-18T02:27:18;94874.28;;;-8.35;100.00
39739;BME280;25422;48.286;8.484;2022-12-18T02:29:52;94883.66;;;-8.37;100.00
39739;BME280;25422;48.286;8.484;2022-12-18T02:32:26;94878.44;;;-8.32;100.00
39739;BME280;25422;48.286;8.484;2022-12-18T02:34:55;94880.19;;;-8.34;100.00
39739;BME280;25422;48.286;8.484;2022-12-18T02:37:25;94878.09;;;-8.18;100.00
39739;BME280;25422;48.286;8.484;2022-12-18T02:39:54;94881.56;;;-8.22;100.00
39739;BME280;25422;48.286;8.484;2022-12-18T02:42:22;94881.53;;;-8.21;100.00
39739;BME280;25422;48.286;8.484;2022-12-18T02:44:50;94878.94;;;-8.18;100.00
39739;BME280;25422;48.286;8.484;2022-12-18T02:47:27;94879.72;;;-8.16;100.00
39739;BME280;25422;48.286;8.484;2022-12-18T02:50:01;94877.94;;;-8.12;100.00
39739;BME280;25422;48.286;8.484;2022-12-18T02:55:21;94879.56;;;-8.09;100.00
39739;BME280;25422;48.286;8.484;2022-12-18T02:57:55;94875.25;;;-8.07;100.00
39739;BME280;25422;48.286;8.484;2022-12-18T03:00:41;94871.00;;;-8.05;100.00
39739;BME280;25422;48.286;8.484;2022-12-18T03:05:48;94873.44;;;-8.02;100.00
39739;BME280;25422;48.286;8.484;2022-12-18T03:08:20;94874.19;;;-7.99;100.00
39739;BME280;25422;48.286;8.484;2022-12-18T03:10:58;94873.28;;;-7.96;100.00
39739;BME280;25422;48.286;8.484;2022-12-18T03:13:34;94868.22;;;-7.96;100.00
39739;BME280;25422;48.286;8.484;2022-12-18T03:16:02;94873.28;;;-7.96;100.00
39739;BME280;25422;48.286;8.484;2022-12-18T03:18:51;94876.59;;;-7.94;100.00
39739;BME280;25422;48.286;8.484;2022-12-18T03:21:22;94873.09;;;-7.90;100.00
39739;BME280;25422;48.286;8.484;2022-12-18T03:23:51;94878.94;;;-7.86;100.00
39739;BME280;25422;48.286;8.484;2022-12-18T03:26:23;94876.34;;;-7.85;100.00
39739;BME280;25422;48.286;8.484;2022-12-18T03:29:04;94874.88;;;-7.92;100.00
39739;BME280;25422;48.286;8.484;2022-12-18T03:31:31;94876.44;;;-7.88;100.00
39739;BME280;25422;48.286;8.484;2022-12-18T03:34:01;94864.56;;;-7.87;100.00
39739;BME280;25422;48.286;8.484;2022-12-18T03:36:37;94878.13;;;-7.88;100.00
39739;BME280;25422;48.286;8.484;2022-12-18T03:39:03;94877.41;;;-7.92;100.00
39739;BME280;25422;48.286;8.484;2022-12-18T03:41:40;94876.59;;;-7.94;100.00
39739;BME280;25422;48.286;8.484;2022-12-18T03:47:27;94873.88;;;-7.86;100.00
39739;BME280;25422;48.286;8.484;2022-12-18T03:52:46;94863.75;;;-7.88;100.00
39739;BME280;25422;48.286;8.484;2022-12-18T03:55:17;94868.13;;;-7.93;100.00
39739;BME280;25422;48.286;8.484;2022-12-18T03:57:47;94857.97;;;-7.93;100.00
39739;BME280;25422;48.286;8.484;2022-12-18T04:00:16;94859.69;;;-7.95;100.00
39739;BME280;25422;48.286;8.484;2022-12-18T04:03:01;94866.41;;;-7.92;100.00
39739;BME280;25422;48.286;8.484;2022-12-18T04:05:38;94864.72;;;-7.92;100.00
39739;BME280;25422;48.286;8.484;2022-12-18T04:08:05;94863.78;;;-7.89;100.00
39739;BME280;25422;48.286;8.484;2022-12-18T04:10:35;94880.72;;;-7.90;100.00
39739;BME280;25422;48.286;8.484;2022-12-18T04:13:01;94879.69;;;-7.83;100.00
39739;BME280;25422;48.286;8.484;2022-12-18T04:15:27;94882.31;;;-7.86;100.00
39739;BME280;25422;48.286;8.484;2022-12-18T04:17:54;94883.03;;;-7.81;100.00
39739;BME280;25422;48.286;8.484;2022-12-18T04:20:23;94886.34;;;-7.79;100.00
39739;BME280;25422;48.286;8.484;2022-12-18T04:22:48;94877.03;;;-7.78;100.00
39739;BME280;25422;48.286;8.484;2022-12-18T04:25:14;94876.16;;;-7.79;100.00
39739;BME280;25422;48.286;8.484;2022-12-18T04:27:52;94874.47;;;-7.78;100.00
39739;BME280;25422;48.286;8.484;2022-12-18T04:30:17;94877.78;;;-7.74;100.00
39739;BME280;25422;48.286;8.484;2022-12-18T04:32:43;94864.19;;;-7.73;100.00
39739;BME280;25422;48.286;8.484;2022-12-18T04:35:09;94871.03;;;-7.75;100.00
39739;BME280;25422;48.286;8.484;2022-12-18T04:37:38;94865.94;;;-7.75;100.00
39739;BME280;25422;48.286;8.484;2022-12-18T04:40:05;94867.78;;;-7.81;100.00
39739;BME280;25422;48.286;8.484;2022-12-18T04:42:39;94860.06;;;-7.77;100.00
39739;BME280;25422;48.286;8.484;2022-12-18T04:45:05;94856.50;;;-7.72;100.00
39739;BME280;25422;48.286;8.484;2022-12-18T04:47:30;94852.38;;;-7.74;100.00
39739;BME280;25422;48.286;8.484;2022-12-18T04:49:56;94861.81;;;-7.80;100.00
39739;BME280;25422;48.286;8.484;2022-12-18T04:52:21;94866.06;;;-7.80;100.00
39739;BME280;25422;48.286;8.484;2022-12-18T04:54:47;94867.81;;;-7.82;100.00
39739;BME280;25422;48.286;8.484;2022-12-18T04:57:12;94869.44;;;-7.80;100.00
39739;BME280;25422;48.286;8.484;2022-12-18T04:59:39;94871.09;;;-7.79;100.00
39739;BME280;25422;48.286;8.484;2022-12-18T05:02:05;94865.16;;;-7.77;100.00
39739;BME280;25422;48.286;8.484;2022-12-18T05:04:30;94864.28;;;-7.76;100.00
39739;BME280;25422;48.286;8.484;2022-12-18T05:06:56;94872.03;;;-7.81;100.00
39739;BME280;25422;48.286;8.484;2022-12-18T05:09:21;94871.06;;;-7.77;100.00
39739;BME280;25422;48.286;8.484;2022-12-18T05:11:47;94870.22;;;-7.77;100.00
39739;BME280;25422;48.286;8.484;2022-12-18T05:14:12;94866.88;;;-7.78;100.00
39739;BME280;25422;48.286;8.484;2022-12-18T05:16:38;94868.50;;;-7.75;100.00
39739;BME280;25422;48.286;8.484;2022-12-18T05:19:03;94864.31;;;-7.78;100.00
39739;BME280;25422;48.286;8.484;2022-12-18T05:21:29;94871.75;;;-7.72;100.00
39739;BME280;25422;48.286;8.484;2022-12-18T05:23:54;94865.72;;;-7.68;100.00
39739;BME280;25422;48.286;8.484;2022-12-18T05:26:19;94868.25;;;-7.68;100.00
39739;BME280;25422;48.286;8.484;2022-12-18T05:28:45;94873.22;;;-7.63;100.00
39739;BME280;25422;48.286;8.484;2022-12-18T05:31:11;94869.06;;;-7.66;100.00
39739;BME280;25422;48.286;8.484;2022-12-18T05:33:37;94869.00;;;-7.64;100.00
39739;BME280;25422;48.286;8.484;2022-12-18T05:36:05;94872.41;;;-7.64;100.00
39739;BME280;25422;48.286;8.484;2022-12-18T05:38:32;94867.06;;;-7.56;100.00
39739;BME280;25422;48.286;8.484;2022-12-18T05:40:58;94861.91;;;-7.53;100.00
39739;BME280;25422;48.286;8.484;2022-12-18T05:43:25;94859.34;;;-7.53;100.00
39739;BME280;25422;48.286;8.484;2022-12-18T05:45:51;94860.25;;;-7.54;100.00
39739;BME280;25422;48.286;8.484;2022-12-18T05:48:17;94863.56;;;-7.52;100.00
39739;BME280;25422;48.286;8.484;2022-12-18T05:50:44;94859.28;;;-7.50;100.00
39739;BME280;25422;48.286;8.484;2022-12-18T05:53:14;94861.91;;;-7.53;100.00
39739;BME280;25422;48.286;8.484;2022-12-18T05:55:41;94858.41;;;-7.49;100.00
39739;BME280;25422;48.286;8.484;2022-12-18T05:58:08;94857.66;;;-7.52;100.00
39739;BME280;25422;48.286;8.484;2022-12-18T06:00:36;94861.75;;;-7.47;100.00
39739;BME280;25422;48.286;8.484;2022-12-18T06:03:05;94866.03;;;-7.49;100.00
39739;BME280;25422;48.286;8.484;2022-12-18T06:05:41;94865.09;;;-7.46;100.00
39739;BME280;25422;48.286;8.484;2022-12-18T06:08:07;94876.28;;;-7.52;100.00
39739;BME280;25422;48.286;8.484;2022-12-18T06:10:33;94870.28;;;-7.49;100.00
39739;BME280;25422;48.286;8.484;2022-12-18T06:13:00;94872.06;;;-7.51;100.00
39739;BME280;25422;48.286;8.484;2022-12-18T06:15:25;94875.31;;;-7.48;100.00
39739;BME280;25422;48.286;8.484;2022-12-18T06:17:51;94880.34;;;-7.44;100.00
39739;BME280;25422;48.286;8.484;2022-12-18T06:20:16;94891.41;;;-7.47;100.00
39739;BME280;25422;48.286;8.484;2022-12-18T06:22:42;94893.88;;;-7.44;100.00
39739;BME280;25422;48.286;8.484;2022-12-18T06:25:07;94894.78;;;-7.47;100.00
39739;BME280;25422;48.286;8.484;2022-12-18T06:27:33;94902.25;;;-7.42;100.00
39739;BME280;25422;48.286;8.484;2022-12-18T06:30:01;94902.25;;;-7.40;100.00
39739;BME280;25422;48.286;8.484;2022-12-18T06:32:27;94902.41;;;-7.47;100.00
39739;BME280;25422;48.286;8.484;2022-12-18T06:34:52;94898.06;;;-7.43;100.00
39739;BME280;25422;48.286;8.484;2022-12-18T06:37:19;94910.75;;;-7.41;100.00
39739;BME280;25422;48.286;8.484;2022-12-18T06:39:44;94917.50;;;-7.40;100.00
39739;BME280;25422;48.286;8.484;2022-12-18T06:42:09;94917.41;;;-7.37;100.00
39739;BME280;25422;48.286;8.484;2022-12-18T06:44:35;94907.22;;;-7.37;100.00
39739;BME280;25422;48.286;8.484;2022-12-18T06:47:00;94910.59;;;-7.37;100.00
39739;BME280;25422;48.286;8.484;2022-12-18T06:49:26;94913.13;;;-7.37;100.00
39739;BME280;25422;48.286;8.484;2022-12-18T06:51:51;94916.59;;;-7.39;100.00
39739;BME280;25422;48.286;8.484;2022-12-18T06:54:17;94917.41;;;-7.37;100.00
39739;BME280;25422;48.286;8.484;2022-12-18T06:56:45;94928.44;;;-7.38;100.00
39739;BME280;25422;48.286;8.484;2022-12-18T06:59:12;94930.09;;;-7.37;100.00
39739;BME280;25422;48.286;8.484;2022-12-18T07:01:37;94925.06;;;-7.39;100.00
39739;BME280;25422;48.286;8.484;2022-12-18T07:04:03;94932.66;;;-7.37;100.00
39739;BME280;25422;48.286;8.484;2022-12-18T07:06:28;94935.91;;;-7.32;100.00
39739;BME280;25422;48.286;8.484;2022-12-18T07:08:54;94941.00;;;-7.32;100.00
39739;BME280;25422;48.286;8.484;2022-12-18T07:11:20;94938.50;;;-7.35;100.00
39739;BME280;25422;48.286;8.484;2022-12-18T07:13:46;94943.59;;;-7.34;100.00
39739;BME280;25422;48.286;8.484;2022-12-18T07:16:19;94939.22;;;-7.30;100.00
39739;BME280;25422;48.286;8.484;2022-12-18T07:18:45;94943.44;;;-7.29;100.00
39739;BME280;25422;48.286;8.484;2022-12-18T07:21:16;94948.56;;;-7.31;100.00
39739;BME280;25422;48.286;8.484;2022-12-18T07:23:42;94947.72;;;-7.31;100.00
39739;BME280;25422;48.286;8.484;2022-12-18T07:26:12;94953.41;;;-7.21;100.00
39739;BME280;25422;48.286;8.484;2022-12-18T07:28:39;94944.97;;;-7.23;100.00
39739;BME280;25422;48.286;8.484;2022-12-18T07:31:07;94943.38;;;-7.28;100.00
39739;BME280;25422;48.286;8.484;2022-12-18T07:33:33;94939.94;;;-7.25;100.00
39739;BME280;25422;48.286;8.484;2022-12-18T07:36:04;94949.22;;;-7.24;100.00
39739;BME280;25422;48.286;8.484;2022-12-18T07:38:30;94949.19;;;-7.22;100.00
39739;BME280;25422;48.286;8.484;2022-12-18T07:41:03;94953.19;;;-7.15;100.00
39739;BME280;25422;48.286;8.484;2022-12-18T07:43:29;94948.31;;;-7.21;100.00
39739;BME280;25422;48.286;8.484;2022-12-18T07:45:54;94947.41;;;-7.19;100.00
39739;BME280;25422;48.286;8.484;2022-12-18T07:48:19;94959.31;;;-7.21;100.00
39739;BME280;25422;48.286;8.484;2022-12-18T07:50:45;94963.53;;;-7.20;100.00
39739;BME280;25422;48.286;8.484;2022-12-18T07:53:10;94957.56;;;-7.19;100.00
39739;BME280;25422;48.286;8.484;2022-12-18T07:55:36;94946.63;;;-7.22;100.00
39739;BME280;25422;48.286;8.484;2022-12-18T07:58:02;94954.22;;;-7.21;100.00
39739;BME280;25422;48.286;8.484;2022-12-18T08:00:28;94961.81;;;-7.19;100.00
39739;BME280;25422;48.286;8.484;2022-12-18T08:02:53;94965.81;;;-7.10;100.00
39739;BME280;25422;48.286;8.484;2022-12-18T08:05:19;94966.69;;;-7.12;100.00
39739;BME280;25422;48.286;8.484;2022-12-18T08:07:46;94971.81;;;-7.13;100.00
39739;BME280;25422;48.286;8.484;2022-12-18T08:10:12;94976.72;;;-7.07;100.00
39739;BME280;25422;48.286;8.484;2022-12-18T08:12:37;94983.31;;;-7.00;100.00
39739;BME280;25422;48.286;8.484;2022-12-18T08:15:03;94984.22;;;-7.02;100.00
39739;BME280;25422;48.286;8.484;2022-12-18T08:17:29;94982.50;;;-7.02;100.00
39739;BME280;25422;48.286;8.484;2022-12-18T08:19:54;94985.59;;;-6.92;100.00
39739;BME280;25422;48.286;8.484;2022-12-18T08:22:19;94985.88;;;-7.01;100.00
39739;BME280;25422;48.286;8.484;2022-12-18T08:24:45;94982.41;;;-6.99;100.00
39739;BME280;25422;48.286;8.484;2022-12-18T08:27:10;94984.88;;;-6.96;100.00
39739;BME280;25422;48.286;8.484;2022-12-18T08:29:35;94990.13;;;-7.02;100.00
39739;BME280;25422;48.286;8.484;2022-12-18T08:32:01;94994.00;;;-6.88;100.00
39739;BME280;25422;48.286;8.484;2022-12-18T08:34:26;94989.66;;;-6.85;100.00
39739;BME280;25422;48.286;8.484;2022-12-18T08:36:52;94993.06;;;-6.86;100.00
39739;BME280;25422;48.286;8.484;2022-12-18T08:39:17;94988.53;;;-6.76;100.00
39739;BME280;25422;48.286;8.484;2022-12-18T08:41:42;94978.84;;;-6.63;100.00
39739;BME280;25422;48.286;8.484;2022-12-18T08:44:28;94979.72;;;-6.64;100.00
39739;BME280;25422;48.286;8.484;2022-12-18T08:47:03;94971.88;;;-6.58;100.00
39739;BME280;25422;48.286;8.484;2022-12-18T08:49:28;94975.81;;;-6.48;100.00
39739;BME280;25422;48.286;8.484;2022-12-18T08:51:55;94973.25;;;-6.48;100.00
39739;BME280;25422;48.286;8.484;2022-12-18T08:54:22;94965.97;;;-6.32;100.00
39739;BME280;25422;48.286;8.484;2022-12-18T08:56:47;94959.84;;;-6.53;100.00
39739;BME280;25422;48.286;8.484;2022-12-18T08:59:13;94964.47;;;-6.37;100.00
39739;BME280;25422;48.286;8.484;2022-12-18T09:01:39;94962.47;;;-6.28;100.00
39739;BME280;25422;48.286;8.484;2022-12-18T09:04:05;94959.69;;;-6.20;100.00
39739;BME280;25422;48.286;8.484;2022-12-18T09:06:33;94964.25;;;-6.31;100.00
39739;BME280;25422;48.286;8.484;2022-12-18T09:09:00;94954.66;;;-6.23;100.00
39739;BME280;25422;48.286;8.484;2022-12-18T09:11:28;94955.81;;;-6.32;100.00
39739;BME280;25422;48.286;8.484;2022-12-18T09:13:54;94956.22;;;-6.19;100.00
39739;BME280;25422;48.286;8.484;2022-12-18T09:16:21;94962.59;;;-6.05;100.00
39739;BME280;25422;48.286;8.484;2022-12-18T09:18:47;94969.59;;;-6.12;100.00
39739;BME280;25422;48.286;8.484;2022-12-18T09:21:15;94957.66;;;-6.10;100.00
39739;BME280;25422;48.286;8.484;2022-12-18T09:23:41;94962.06;;;-6.15;100.00
39739;BME280;25422;48.286;8.484;2022-12-18T09:26:07;94964.38;;;-6.07;100.00
39739;BME280;25422;48.286;8.484;2022-12-18T09:28:33;94959.91;;;-6.01;100.00
39739;BME280;25422;48.286;8.484;2022-12-18T09:30:59;94961.66;;;-6.03;100.00
39739;BME280;25422;48.286;8.484;2022-12-18T09:33:28;94957.91;;;-5.93;100.00
39739;BME280;25422;48.286;8.484;2022-12-18T09:35:53;94960.59;;;-5.97;100.00
39739;BME280;25422;48.286;8.484;2022-12-18T09:38:19;94962.59;;;-6.05;100.00
39739;BME280;25422;48.286;8.484;2022-12-18T09:40:51;94971.63;;;-5.97;100.00
39739;BME280;25422;48.286;8.484;2022-12-18T09:43:20;94966.47;;;-5.95;100.00
39739;BME280;25422;48.286;8.484;2022-12-18T09:45:51;94969.31;;;-6.03;100.00
39739;BME280;25422;48.286;8.484;2022-12-18T09:48:27;94963.56;;;-5.84;100.00
39739;BME280;25422;48.286;8.484;2022-12-18T09:51:00;94960.41;;;-5.91;100.00
39739;BME280;25422;48.286;8.484;2022-12-18T09:53:31;94961.72;;;-5.55;100.00
39739;BME280;25422;48.286;8.484;2022-12-18T09:55:58;94959.91;;;-5.77;100.00
39739;BME280;25422;48.286;8.484;2022-12-18T09:58:36;94954.72;;;-5.74;100.00
39739;BME280;25422;48.286;8.484;2022-12-18T10:01:24;94963.84;;;-5.68;100.00
39739;BME280;25422;48.286;8.484;2022-12-18T10:03:50;94965.06;;;-5.79;100.00
39739;BME280;25422;48.286;8.484;2022-12-18T10:06:22;94964.84;;;-5.72;100.00
39739;BME280;25422;48.286;8.484;2022-12-18T10:09:03;94971.47;;;-5.67;100.00
39739;BME280;25422;48.286;8.484;2022-12-18T10:11:52;94974.78;;;-5.65;100.00
39739;BME280;25422;48.286;8.484;2022-12-18T10:14:21;94969.22;;;-5.51;100.00
39739;BME280;25422;48.286;8.484;2022-12-18T10:19:40;94969.34;;;-5.06;100.00
39739;BME280;25422;48.286;8.484;2022-12-18T10:22:44;94978.56;;;-5.26;100.00
39739;BME280;25422;48.286;8.484;2022-12-18T10:25:23;94971.16;;;-5.09;100.00
39739;BME280;25422;48.286;8.484;2022-12-18T10:27:58;94977.09;;;-4.86;100.00
39739;BME280;25422;48.286;8.484;2022-12-18T10:30:25;94986.97;;;-4.77;100.00
39739;BME280;25422;48.286;8.484;2022-12-18T10:32:51;94982.53;;;-4.71;100.00
39739;BME280;25422;48.286;8.484;2022-12-18T10:35:22;94980.44;;;-4.84;100.00
39739;BME280;25422;48.286;8.484;2022-12-18T10:38:05;94963.69;;;-4.91;100.00
39739;BME280;25422;48.286;8.484;2022-12-18T10:40:31;94969.75;;;-4.94;100.00
39739;BME280;25422;48.286;8.484;2022-12-18T10:43:11;94960.28;;;-4.68;100.00
39739;BME280;25422;48.286;8.484;2022-12-18T10:45:37;94949.06;;;-4.64;100.00
39739;BME280;25422;48.286;8.484;2022-12-18T10:48:03;94942.47;;;-4.47;100.00
39739;BME280;25422;48.286;8.484;2022-12-18T10:50:32;94959.56;;;-4.71;100.00
39739;BME280;25422;48.286;8.484;2022-12-18T10:53:00;94953.16;;;-4.60;100.00
39739;BME280;25422;48.286;8.484;2022-12-18T10:55:38;94950.81;;;-4.44;100.00
39739;BME280;25422;48.286;8.484;2022-12-18T10:58:33;94944.66;;;-4.38;100.00
39739;BME280;25422;48.286;8.484;2022-12-18T11:01:16;94940.25;;;-4.12;100.00
39739;BME280;25422;48.286;8.484;2022-12-18T11:06:24;94942.16;;;-3.97;100.00
39739;BME280;25422;48.286;8.484;2022-12-18T11:09:18;94934.34;;;-4.14;100.00
39739;BME280;25422;48.286;8.484;2022-12-18T11:11:52;94936.09;;;-3.94;100.00
39739;BME280;25422;48.286;8.484;2022-12-18T11:14:42;94936.97;;;-3.54;100.00
39739;BME280;25422;48.286;8.484;2022-12-18T11:17:31;94940.00;;;-3.25;100.00
39739;BME280;25422;48.286;8.484;2022-12-18T11:20:04;94939.13;;;-3.05;100.00
39739;BME280;25422;48.286;8.484;2022-12-18T11:22:34;94931.69;;;-3.30;100.00
39739;BME280;25422;48.286;8.484;2022-12-18T11:25:17;94936.25;;;-3.18;100.00
39739;BME280;25422;48.286;8.484;2022-12-18T11:34:39;94935.63;;;-2.85;100.00
39739;BME280;25422;48.286;8.484;2022-12-18T11:36:45;94933.63;;;-2.78;100.00
39739;BME280;25422;48.286;8.484;2022-12-18T11:39:28;94937.44;;;-2.87;100.00
39739;BME280;25422;48.286;8.484;2022-12-18T11:42:00;94934.81;;;-2.85;100.00
39739;BME280;25422;48.286;8.484;2022-12-18T11:44:48;94933.34;;;-2.72;100.00
39739;BME280;25422;48.286;8.484;2022-12-18T11:50:15;94937.09;;;-2.60;100.00
39739;BME280;25422;48.286;8.484;2022-12-18T11:52:41;94944.41;;;-2.16;100.00
39739;BME280;25422;48.286;8.484;2022-12-18T11:55:21;94937.22;;;-2.27;100.00
39739;BME280;25422;48.286;8.484;2022-12-18T11:58:02;94925.47;;;-2.13;100.00
39739;BME280;25422;48.286;8.484;2022-12-18T12:00:30;94917.00;;;-2.50;100.00
39739;BME280;25422;48.286;8.484;2022-12-18T12:03:18;94909.59;;;-2.57;100.00
39739;BME280;25422;48.286;8.484;2022-12-18T12:06:00;94914.03;;;-2.60;100.00
39739;BME280;25422;48.286;8.484;2022-12-18T12:16:59;94909.56;;;-2.93;100.00
39739;BME280;25422;48.286;8.484;2022-12-18T12:22:08;94915.22;;;-3.06;100.00
39739;BME280;25422;48.286;8.484;2022-12-18T12:30:10;94909.84;;;-2.99;100.00
39739;BME280;25422;48.286;8.484;2022-12-18T12:33:02;94912.66;;;-3.06;100.00
39739;BME280;25422;48.286;8.484;2022-12-18T12:38:37;94904.66;;;-3.17;100.00
39739;BME280;25422;48.286;8.484;2022-12-18T12:41:09;94911.94;;;-3.08;100.00
39739;BME280;25422;48.286;8.484;2022-12-18T12:43:59;94922.25;;;-3.09;100.00
39739;BME280;25422;48.286;8.484;2022-12-18T12:46:26;94927.09;;;-3.43;100.00
39739;BME280;25422;48.286;8.484;2022-12-18T12:49:09;94924.19;;;-3.54;100.00
39739;BME280;25422;48.286;8.484;2022-12-18T12:51:40;94927.50;;;-3.52;100.00
39739;BME280;25422;48.286;8.484;2022-12-18T12:54:11;94932.00;;;-3.78;100.00
39739;BME280;25422;48.286;8.484;2022-12-18T12:56:44;94932.50;;;-3.90;100.00
39739;BME280;25422;48.286;8.484;2022-12-18T12:59:27;94927.91;;;-4.02;100.00
39739;BME280;25422;48.286;8.484;2022-12-18T13:02:10;94921.75;;;-4.19;100.00
39739;BME280;25422;48.286;8.484;2022-12-18T13:07:52;94913.69;;;-4.30;100.00
39739;BME280;25422;48.286;8.484;2022-12-18T13:16:04;94924.16;;;-4.36;100.00
39739;BME280;25422;48.286;8.484;2022-12-18T13:18:31;94914.97;;;-4.41;100.00
39739;BME280;25422;48.286;8.484;2022-12-18T13:25:50;94924.50;;;-4.24;100.00
39739;BME280;25422;48.286;8.484;2022-12-18T13:36:47;94917.03;;;-4.50;100.00
39739;BME280;25422;48.286;8.484;2022-12-18T13:41:52;94911.97;;;-4.52;100.00
39739;BME280;25422;48.286;8.484;2022-12-18T13:44:34;94914.94;;;-4.61;100.00
39739;BME280;25422;48.286;8.484;2022-12-18T13:47:03;94911.81;;;-4.69;100.00
39739;BME280;25422;48.286;8.484;2022-12-18T13:49:40;94920.94;;;-4.86;100.00
39739;BME280;25422;48.286;8.484;2022-12-18T13:52:26;94907.31;;;-4.85;100.00
39739;BME280;25422;48.286;8.484;2022-12-18T13:54:55;94913.53;;;-4.92;100.00
39739;BME280;25422;48.286;8.484;2022-12-18T13:57:36;94909.53;;;-4.99;100.00
39739;BME280;25422;48.286;8.484;2022-12-18T14:00:25;94909.94;;;-5.10;100.00
39739;BME280;25422;48.286;8.484;2022-12-18T14:02:53;94914.88;;;-5.05;100.00
39739;BME280;25422;48.286;8.484;2022-12-18T14:05:34;94907.75;;;-5.19;100.00
39739;BME280;25422;48.286;8.484;2022-12-18T14:08:04;94905.22;;;-5.19;100.00
39739;BME280;25422;48.286;8.484;2022-12-18T14:10:30;94904.34;;;-5.20;100.00
39739;BME280;25422;48.286;8.484;2022-12-18T14:12:57;94907.09;;;-5.25;100.00
39739;BME280;25422;48.286;8.484;2022-12-18T14:15:35;94911.19;;;-5.20;100.00
39739;BME280;25422;48.286;8.484;2022-12-18T14:20:52;94918.16;;;-5.26;100.00
39739;BME280;25422;48.286;8.484;2022-12-18T14:23:40;94914.47;;;-5.40;100.00
39739;BME280;25422;48.286;8.484;2022-12-18T14:26:27;94914.78;;;-5.50;100.00
39739;BME280;25422;48.286;8.484;2022-12-18T14:28:55;94917.34;;;-5.50;100.00
39739;BME280;25422;48.286;8.484;2022-12-18T14:31:23;94917.34;;;-5.50;100.00
39739;BME280;25422;48.286;8.484;2022-12-18T14:33:49;94912.13;;;-5.47;100.00